Terminal Aerodrome Forecast
Issued by NWS Shreveport, LA

Home | Current Version | Previous Version | Text Only | Print | Product List | Glossary On
Versions: 1 2 3 4 5 6 7 8 9 10 11 12
000
FTUS44 KSHV 311700
TAFLFK
TAF
KLFK 311720Z 3118/0118 35012G19KT P6SM SCT050
     FM312300 35008KT P6SM SKC
     FM010000 02004KT P6SM SKC=

USA.gov is the U.S. government's official web portal to all federal, state and local government web resources and services.